createdAt,value
2023-11-01T00:00:59.090Z,99974.84
2023-11-01T00:03:35.217Z,99975.19
2023-11-01T00:06:12.490Z,99970.59
2023-11-01T00:08:48.209Z,99971.44
2023-11-01T00:11:28.360Z,99972.66
2023-11-01T00:13:56.993Z,99972.03
2023-11-01T00:16:37.390Z,99978.50
2023-11-01T00:19:13.088Z,99978.03
2023-11-01T00:21:48.385Z,99974.09
2023-11-01T00:24:19.468Z,99980.63
2023-11-01T00:26:59.165Z,99987.50
2023-11-01T00:29:35.159Z,99991.63
2023-11-01T00:32:05.914Z,99993.81
2023-11-01T00:34:41.669Z,100007.34
2023-11-01T00:37:12.450Z,100003.34
2023-11-01T00:39:48.083Z,100008.84
2023-11-01T00:42:21.358Z,100010.16
2023-11-01T00:44:50.903Z,100002.88
2023-11-01T00:47:25.375Z,100010.66
2023-11-01T00:50:04.338Z,100008.59
2023-11-01T00:52:41.156Z,99998.63
2023-11-01T00:55:11.544Z,100013.41
2023-11-01T00:57:54.697Z,100012.78
2023-11-01T01:00:29.433Z,100020.69
2023-11-01T01:03:03.788Z,100014.09
2023-11-01T01:05:41.734Z,100018.25
2023-11-01T01:08:13.083Z,100016.94
2023-11-01T01:10:51.897Z,100016.09
2023-11-01T01:13:24.638Z,100013.84
2023-11-01T01:16:07.607Z,100014.00
2023-11-01T01:18:38.319Z,100012.44
2023-11-01T01:21:13.279Z,100016.25
2023-11-01T01:23:47.205Z,100021.06
2023-11-01T01:26:17.733Z,100024.53
2023-11-01T01:28:51.460Z,100019.09
2023-11-01T01:31:22.468Z,100025.75
2023-11-01T01:34:13.213Z,100024.28
2023-11-01T01:36:41.498Z,100032.22
2023-11-01T01:39:15.313Z,100039.53
2023-11-01T01:41:47.735Z,100037.53
2023-11-01T01:44:17.356Z,100041.22
2023-11-01T01:46:51.109Z,100032.66
2023-11-01T01:49:39.813Z,100030.47
2023-11-01T01:52:16.707Z,100043.69
2023-11-01T01:54:52.997Z,100048.00
2023-11-01T01:57:31.649Z,100044.34
2023-11-01T02:00:08.888Z,100050.03
2023-11-01T02:02:47.154Z,100052.31
2023-11-01T02:08:03.294Z,100059.09
2023-11-01T02:10:38.418Z,100067.84
2023-11-01T02:13:22.278Z,100070.19
2023-11-01T02:15:53.233Z,100068.38
2023-11-01T02:18:22.708Z,100078.44
2023-11-01T02:20:55.386Z,100087.22
2023-11-01T02:23:38.567Z,100082.75
2023-11-01T02:26:12.383Z,100085.06
2023-11-01T02:28:42.341Z,100080.78
2023-11-01T02:31:15.638Z,100096.66
2023-11-01T02:33:45.684Z,100095.00
2023-11-01T02:36:14.588Z,100099.78
2023-11-01T02:38:45.467Z,100106.91
2023-11-01T02:41:18.245Z,100101.94
2023-11-01T02:43:50.394Z,100100.44
2023-11-01T02:46:23.796Z,100102.25
2023-11-01T02:49:02.660Z,100101.94
2023-11-01T02:51:31.863Z,100104.72
2023-11-01T02:54:07.046Z,100106.88
2023-11-01T02:56:35.757Z,100111.50
2023-11-01T02:59:05.233Z,100122.72
2023-11-01T03:01:34.942Z,100121.38
2023-11-01T03:04:08.175Z,100130.47
2023-11-01T03:06:37.734Z,100130.63
2023-11-01T03:09:07.216Z,100137.91
2023-11-01T03:11:38.294Z,100139.53
2023-11-01T03:14:11.852Z,100136.22
2023-11-01T03:16:45.505Z,100133.25
2023-11-01T03:19:15.690Z,100131.25
2023-11-01T03:21:46.137Z,100129.13
2023-11-01T03:24:15.801Z,100126.31
2023-11-01T03:26:48.262Z,100130.59
2023-11-01T03:29:17.136Z,100128.91
2023-11-01T03:31:47.386Z,100127.56
2023-11-01T03:34:21.014Z,100132.50
2023-11-01T03:36:50.003Z,100131.97
2023-11-01T03:39:21.463Z,100132.97
2023-11-01T03:41:51.009Z,100129.81
2023-11-01T03:44:21.245Z,100131.63
2023-11-01T03:46:55.324Z,100134.44
2023-11-01T03:49:35.421Z,100137.41
2023-11-01T03:52:05.830Z,100140.03
2023-11-01T03:54:38.415Z,100139.03
2023-11-01T03:57:08.953Z,100135.34
2023-11-01T03:59:38.295Z,100127.56
2023-11-01T04:02:11.688Z,100134.13
2023-11-01T04:04:41.360Z,100134.59
2023-11-01T04:07:11.923Z,100123.53
2023-11-01T04:09:45.203Z,100128.94
2023-11-01T04:12:24.365Z,100128.47
2023-11-01T04:14:55.542Z,100138.72
2023-11-01T04:17:28.577Z,100150.03
2023-11-01T04:20:02.243Z,100149.41
2023-11-01T04:22:31.754Z,100142.47
2023-11-01T04:25:03.099Z,100152.41
2023-11-01T04:27:37.366Z,100154.03
2023-11-01T04:30:09.530Z,100152.81
2023-11-01T04:32:43.816Z,100147.56
2023-11-01T04:35:18.737Z,100154.56
2023-11-01T04:37:48.728Z,100154.38
2023-11-01T04:40:18.965Z,100155.22
2023-11-01T04:42:51.351Z,100155.53
2023-11-01T04:45:20.601Z,100150.53
2023-11-01T04:47:55.598Z,100155.16
2023-11-01T04:50:27.992Z,100157.94
2023-11-01T04:52:58.058Z,100154.47
2023-11-01T04:55:30.562Z,100154.47
2023-11-01T04:58:04.200Z,100160.75
2023-11-01T05:00:36.685Z,100160.75
2023-11-01T05:03:10.194Z,100163.22
2023-11-01T05:05:40.384Z,100162.91
2023-11-01T05:08:09.460Z,100165.41
2023-11-01T05:10:41.819Z,100173.94
2023-11-01T05:13:12.480Z,100179.66
2023-11-01T05:15:46.736Z,100172.88
2023-11-01T05:18:15.640Z,100179.13
2023-11-01T05:20:47.545Z,100169.06
2023-11-01T05:23:18.403Z,100185.69
2023-11-01T05:25:49.342Z,100184.03
2023-11-01T05:28:25.112Z,100181.09
2023-11-01T05:31:06.252Z,100179.97
2023-11-01T05:33:36.337Z,100202.22
2023-11-01T05:36:10.802Z,100182.59
2023-11-01T05:38:44.941Z,100191.34
2023-11-01T05:41:14.974Z,100200.06
2023-11-01T05:43:45.431Z,100205.88
2023-11-01T05:46:14.385Z,100207.84
2023-11-01T05:48:48.090Z,100202.28
2023-11-01T05:51:16.506Z,100205.72
2023-11-01T05:53:54.630Z,100216.44
2023-11-01T05:56:28.012Z,100204.53
2023-11-01T05:59:07.634Z,100205.34
2023-11-01T06:01:41.733Z,100214.25
2023-11-01T06:04:23.801Z,100220.75
2023-11-01T06:07:00.374Z,100225.03
2023-11-01T06:09:39.488Z,100221.97
2023-11-01T06:12:09.498Z,100241.31
2023-11-01T06:14:40.354Z,100245.97
2023-11-01T06:17:09.532Z,100252.28
2023-11-01T06:19:43.588Z,100261.25
2023-11-01T06:22:13.519Z,100261.31
2023-11-01T06:24:47.107Z,100262.53
2023-11-01T06:27:17.167Z,100265.69
2023-11-01T06:29:49.455Z,100266.75
2023-11-01T06:32:29.912Z,100272.09
2023-11-01T06:35:03.223Z,100268.19
2023-11-01T06:37:38.901Z,100264.81
2023-11-01T06:40:14.925Z,100269.31
2023-11-01T06:42:44.934Z,100268.50
2023-11-01T06:45:16.877Z,100274.19
2023-11-01T06:47:50.016Z,100266.44
2023-11-01T06:50:19.134Z,100275.91
2023-11-01T06:52:49.207Z,100281.72
2023-11-01T06:55:27.165Z,100288.88
2023-11-01T06:57:57.834Z,100294.88
2023-11-01T07:00:32.188Z,100295.88
2023-11-01T07:03:04.046Z,100298.72
2023-11-01T07:05:35.857Z,100301.72
2023-11-01T07:08:05.292Z,100296.75
2023-11-01T07:10:33.069Z,100308.84
2023-11-01T07:13:00.469Z,100308.03
2023-11-01T07:15:29.683Z,100310.69
2023-11-01T07:17:58.531Z,100318.97
2023-11-01T07:20:28.359Z,100311.72
2023-11-01T07:23:01.724Z,100310.56
2023-11-01T07:25:29.851Z,100300.31
2023-11-01T07:27:58.857Z,100308.94
2023-11-01T07:30:33.277Z,100303.31
2023-11-01T07:33:05.619Z,100309.44
2023-11-01T07:35:35.966Z,100317.41
2023-11-01T07:38:07.044Z,100315.72
2023-11-01T07:40:35.959Z,100328.28
2023-11-01T07:43:09.032Z,100332.25
2023-11-01T07:45:40.972Z,100319.81
2023-11-01T07:48:08.912Z,100318.78
2023-11-01T07:50:40.631Z,100317.28
2023-11-01T07:53:10.581Z,100332.00
2023-11-01T07:55:39.735Z,100324.97
2023-11-01T07:58:08.568Z,100322.47
2023-11-01T08:00:38.558Z,100323.41
2023-11-01T08:03:07.372Z,100326.66
2023-11-01T08:05:35.743Z,100323.31
2023-11-01T08:08:05.556Z,100326.41
2023-11-01T08:10:33.341Z,100326.19
2023-11-01T08:13:03.582Z,100323.84
2023-11-01T08:15:35.867Z,100326.91
2023-11-01T08:18:06.918Z,100330.56
2023-11-01T08:20:35.415Z,100331.53
2023-11-01T08:23:03.132Z,100323.53
2023-11-01T08:25:30.799Z,100323.00
2023-11-01T08:28:00.969Z,100327.31
2023-11-01T08:30:29.964Z,100328.22
2023-11-01T08:32:59.086Z,100338.44
2023-11-01T08:35:30.839Z,100338.91
2023-11-01T08:37:58.801Z,100342.75
2023-11-01T08:40:37.076Z,100337.22
2023-11-01T08:43:09.124Z,100337.22
2023-11-01T08:45:37.153Z,100347.56
2023-11-01T08:48:04.877Z,100353.25
2023-11-01T08:50:34.349Z,100355.41
2023-11-01T08:53:06.276Z,100356.09
2023-11-01T08:55:38.139Z,100352.81
2023-11-01T08:58:08.377Z,100348.69
2023-11-01T09:00:45.264Z,100354.84
2023-11-01T09:03:17.815Z,100353.06
2023-11-01T09:05:50.140Z,100358.56
2023-11-01T09:08:21.079Z,100353.09
2023-11-01T09:10:52.975Z,100353.47
2023-11-01T09:13:26.417Z,100363.09
2023-11-01T09:15:57.292Z,100363.09
2023-11-01T09:18:28.505Z,100368.09
2023-11-01T09:20:56.676Z,100368.88
2023-11-01T09:23:30.479Z,100369.56
2023-11-01T09:26:03.408Z,100375.91
2023-11-01T09:28:33.723Z,100378.28
2023-11-01T09:31:07.029Z,100373.56
2023-11-01T09:33:44.505Z,100376.94
2023-11-01T09:36:16.633Z,100371.28
2023-11-01T09:38:44.629Z,100369.06
2023-11-01T09:41:24.787Z,100375.47
2023-11-01T09:44:04.714Z,100367.03
2023-11-01T09:46:38.569Z,100372.50
2023-11-01T09:49:12.138Z,100361.47
2023-11-01T09:51:43.083Z,100359.53
2023-11-01T09:54:19.480Z,100358.53
2023-11-01T09:56:55.370Z,100354.69
2023-11-01T09:59:25.204Z,100346.69
2023-11-01T10:01:53.903Z,100342.78
2023-11-01T10:04:22.519Z,100341.56
2023-11-01T10:06:50.533Z,100328.41
2023-11-01T10:09:18.283Z,100331.69
2023-11-01T10:11:53.937Z,100322.25
2023-11-01T10:14:32.859Z,100328.44
2023-11-01T10:17:01.854Z,100319.78
2023-11-01T10:19:31.629Z,100322.91
2023-11-01T10:22:00.986Z,100314.44
2023-11-01T10:24:31.947Z,100312.00
2023-11-01T10:27:01.181Z,100307.47
2023-11-01T10:29:48.904Z,100297.59
2023-11-01T10:32:21.548Z,100293.50
2023-11-01T10:34:49.918Z,100288.34
2023-11-01T10:37:24.535Z,100288.75
2023-11-01T10:39:57.028Z,100287.31
2023-11-01T10:42:26.671Z,100280.31
2023-11-01T10:44:56.203Z,100275.38
2023-11-01T10:47:30.624Z,100278.66
2023-11-01T10:49:59.557Z,100262.66
2023-11-01T10:52:31.229Z,100266.09
2023-11-01T10:55:02.033Z,100262.38
2023-11-01T10:57:32.209Z,100265.06
2023-11-01T11:00:21.772Z,100263.41
2023-11-01T11:03:19.458Z,100274.50
2023-11-01T11:05:54.334Z,100269.56
2023-11-01T11:08:23.980Z,100271.63
2023-11-01T11:11:00.407Z,100265.28
2023-11-01T11:13:36.585Z,100264.22
2023-11-01T11:16:12.642Z,100260.91
2023-11-01T11:18:49.014Z,100262.53
2023-11-01T11:21:48.635Z,100251.44
2023-11-01T11:24:44.769Z,100243.59
2023-11-01T11:27:47.069Z,100230.56
2023-11-01T11:30:17.543Z,100227.28
2023-11-01T11:32:52.785Z,100227.06
2023-11-01T11:35:25.980Z,100221.94
2023-11-01T11:37:54.896Z,100225.81
2023-11-01T11:40:30.334Z,100223.38
2023-11-01T11:43:04.481Z,100217.19
2023-11-01T11:45:44.171Z,100214.28
2023-11-01T11:48:43.773Z,100208.53
2023-11-01T11:51:14.063Z,100214.50
2023-11-01T11:53:51.897Z,100217.78
2023-11-01T11:56:21.729Z,100212.97
2023-11-01T11:58:53.292Z,100213.63
2023-11-01T12:01:27.240Z,100206.66
2023-11-01T12:04:01.561Z,100202.72
2023-11-01T12:06:58.376Z,100205.63
2023-11-01T12:09:30.938Z,100192.81
2023-11-01T12:12:07.107Z,100195.09
2023-11-01T12:14:37.862Z,100190.16
2023-11-01T12:17:11.524Z,100185.63
2023-11-01T12:19:47.242Z,100190.81
2023-11-01T12:22:23.910Z,100183.38
2023-11-01T12:24:59.342Z,100185.31
2023-11-01T12:27:35.556Z,100177.69
2023-11-01T12:30:05.720Z,100178.94
2023-11-01T12:32:36.746Z,100168.59
2023-11-01T12:35:08.247Z,100168.19
2023-11-01T12:37:36.832Z,100162.41
2023-11-01T12:40:15.709Z,100153.38
2023-11-01T12:42:55.100Z,100156.25
2023-11-01T12:45:25.374Z,100167.84
2023-11-01T12:47:59.102Z,100163.31
2023-11-01T12:50:33.094Z,100168.06
2023-11-01T12:55:43.633Z,100158.97
2023-11-01T12:58:14.583Z,100159.63
2023-11-01T13:00:47.197Z,100165.56
2023-11-01T13:03:16.637Z,100164.16
2023-11-01T13:05:48.913Z,100155.31
2023-11-01T13:08:24.638Z,100157.22
2023-11-01T13:10:59.453Z,100157.59
2023-11-01T13:13:32.406Z,100151.03
2023-11-01T13:16:02.429Z,100158.47
2023-11-01T13:18:36.870Z,100149.19
2023-11-01T13:21:21.826Z,100149.00
2023-11-01T13:24:01.228Z,100143.41
2023-11-01T13:26:28.739Z,100144.25
2023-11-01T13:29:01.308Z,100143.03
2023-11-01T13:31:38.959Z,100136.69
2023-11-01T13:34:15.156Z,100135.22
2023-11-01T13:36:46.923Z,100132.34
2023-11-01T13:39:20.089Z,100129.28
2023-11-01T13:41:55.935Z,100133.81
2023-11-01T13:44:26.291Z,100128.47
2023-11-01T13:46:59.898Z,100128.91
2023-11-01T13:49:35.351Z,100126.41
2023-11-01T13:52:03.944Z,100126.41
2023-11-01T13:54:31.716Z,100123.53
2023-11-01T13:57:07.604Z,100121.69
2023-11-01T13:59:36.985Z,100122.94
2023-11-01T14:02:07.226Z,100115.75
2023-11-01T14:04:40.172Z,100112.44
2023-11-01T14:07:15.375Z,100113.28
2023-11-01T14:09:47.692Z,100115.75
2023-11-01T14:12:17.238Z,100099.53
2023-11-01T14:14:55.692Z,100099.31
2023-11-01T14:17:30.042Z,100094.56
2023-11-01T14:20:03.307Z,100095.00
2023-11-01T14:22:31.458Z,100090.28
2023-11-01T14:25:03.711Z,100092.75
2023-11-01T14:27:35.528Z,100097.69
2023-11-01T14:30:03.790Z,100098.09
2023-11-01T14:32:34.648Z,100100.56
2023-11-01T14:35:03.570Z,100097.69
2023-11-01T14:37:33.354Z,100091.47
2023-11-01T14:40:04.480Z,100091.88
2023-11-01T14:42:34.015Z,100091.47
2023-11-01T14:45:02.651Z,100096.00
2023-11-01T14:47:30.875Z,100085.50
2023-11-01T14:49:58.241Z,100090.63
2023-11-01T14:52:31.043Z,100084.47
2023-11-01T14:54:59.327Z,100081.97
2023-11-01T14:57:27.370Z,100081.75
2023-11-01T14:59:56.655Z,100072.88
2023-11-01T15:02:29.901Z,100069.97
2023-11-01T15:04:58.918Z,100074.25
2023-11-01T15:07:26.453Z,100068.47
2023-11-01T15:09:55.431Z,100076.19
2023-11-01T15:12:24.984Z,100068.53
2023-11-01T15:14:58.864Z,100065.78
2023-11-01T15:17:33.277Z,100061.00
2023-11-01T15:20:01.960Z,100061.59
2023-11-01T15:22:30.933Z,100061.28
2023-11-01T15:24:58.009Z,100066.16
2023-11-01T15:27:26.267Z,100072.44
2023-11-01T15:29:54.136Z,100064.59
2023-11-01T15:32:21.953Z,100066.63
2023-11-01T15:34:49.133Z,100059.78
2023-11-01T15:37:16.707Z,100060.53
2023-11-01T15:39:47.846Z,100054.53
2023-11-01T15:42:18.607Z,100067.41
2023-11-01T15:44:46.187Z,100061.78
2023-11-01T15:47:13.605Z,100053.69
2023-11-01T15:49:40.774Z,100056.09
2023-11-01T15:52:08.020Z,100052.09
2023-11-01T15:54:34.910Z,100056.72
2023-11-01T15:57:02.277Z,100053.38
2023-11-01T15:59:29.457Z,100056.97
2023-11-01T16:01:56.855Z,100060.94
2023-11-01T16:04:24.264Z,100059.19
2023-11-01T16:06:51.414Z,100062.97
2023-11-01T16:09:19.460Z,100057.13
2023-11-01T16:11:47.224Z,100051.63
2023-11-01T16:14:19.036Z,100060.31
2023-11-01T16:16:48.340Z,100053.28
2023-11-01T16:19:15.564Z,100051.91
2023-11-01T16:21:46.978Z,100040.53
2023-11-01T16:24:14.579Z,100045.97
2023-11-01T16:26:42.083Z,100042.53
2023-11-01T16:29:10.009Z,100044.06
2023-11-01T16:31:37.322Z,100038.63
2023-11-01T16:34:04.606Z,100036.53
2023-11-01T16:36:35.482Z,100036.88
2023-11-01T16:39:02.826Z,100026.94
2023-11-01T16:41:30.700Z,100021.72
2023-11-01T16:43:57.992Z,100026.72
2023-11-01T16:46:25.180Z,100024.44
2023-11-01T16:48:52.486Z,100020.31
2023-11-01T16:51:19.709Z,100025.34
2023-11-01T16:53:47.891Z,100023.88
2023-11-01T16:56:15.447Z,100020.72
2023-11-01T16:58:42.916Z,100023.75
2023-11-01T17:01:09.876Z,100026.09
2023-11-01T17:03:36.936Z,100024.44
2023-11-01T17:06:04.458Z,100025.81
2023-11-01T17:08:32.675Z,100025.16
2023-11-01T17:10:59.651Z,100018.22
2023-11-01T17:13:27.230Z,100020.50
2023-11-01T17:15:57.270Z,100019.03
2023-11-01T17:18:25.272Z,100022.53
2023-11-01T17:20:53.686Z,100017.84
2023-11-01T17:23:20.912Z,100026.00
2023-11-01T17:25:50.648Z,100026.34
2023-11-01T17:28:26.269Z,100027.91
2023-11-01T17:30:54.318Z,100017.16
2023-11-01T17:33:34.225Z,100020.56
2023-11-01T17:36:07.790Z,100009.97
2023-11-01T17:38:41.900Z,100006.03
2023-11-01T17:41:10.199Z,100004.38
2023-11-01T17:43:49.010Z,100006.19
2023-11-01T17:46:26.958Z,100003.72
2023-11-01T17:49:09.724Z,99999.41
2023-11-01T17:51:39.330Z,100001.06
2023-11-01T17:54:11.935Z,99998.41
2023-11-01T17:56:38.916Z,99998.41
2023-11-01T17:59:09.334Z,99988.66
2023-11-01T18:01:38.131Z,99991.47
2023-11-01T18:04:07.314Z,99987.19
2023-11-01T18:06:36.707Z,99986.50
2023-11-01T18:09:21.940Z,99979.56
2023-11-01T18:11:58.934Z,99980.06
2023-11-01T18:14:33.490Z,99972.13
2023-11-01T18:17:06.424Z,99971.97
2023-11-01T18:19:42.201Z,99976.44
2023-11-01T18:22:44.094Z,99978.25
2023-11-01T18:25:34.176Z,99971.69
2023-11-01T18:28:10.884Z,99975.31
2023-11-01T18:30:50.769Z,99967.38
2023-11-01T18:33:18.987Z,99970.00
2023-11-01T18:35:48.475Z,99970.38
2023-11-01T18:38:49.049Z,99969.56
2023-11-01T18:41:24.346Z,99967.38
2023-11-01T18:43:58.389Z,99963.09
2023-11-01T18:46:34.112Z,99968.00
2023-11-01T18:49:07.862Z,99962.69
2023-11-01T18:51:59.885Z,99970.50
2023-11-01T18:54:44.342Z,99965.34
2023-11-01T18:57:20.512Z,99964.00
2023-11-01T18:59:48.149Z,99965.69
2023-11-01T19:02:36.546Z,99969.31
2023-11-01T19:05:08.939Z,99966.66
2023-11-01T19:07:41.298Z,99971.13
2023-11-01T19:10:23.168Z,99967.66
2023-11-01T19:12:54.083Z,99970.16
2023-11-01T19:15:36.445Z,99970.59
2023-11-01T19:18:08.409Z,99968.31
2023-11-01T19:20:35.875Z,99971.97
2023-11-01T19:23:02.951Z,99967.66
2023-11-01T19:25:29.916Z,99974.97
2023-11-01T19:27:56.880Z,99968.19
2023-11-01T19:30:25.020Z,99964.72
2023-11-01T19:32:53.398Z,99964.44
2023-11-01T19:35:20.350Z,99964.78
2023-11-01T19:37:47.444Z,99958.00
2023-11-01T19:40:14.442Z,99956.81
2023-11-01T19:42:41.518Z,99952.88
2023-11-01T19:45:09.597Z,99952.06
2023-11-01T19:47:39.212Z,99950.59
2023-11-01T19:50:09.764Z,99947.66
2023-11-01T19:52:38.203Z,99948.00
2023-11-01T19:55:05.502Z,99939.41
2023-11-01T19:57:33.747Z,99939.41
2023-11-01T20:00:01.277Z,99936.75
2023-11-01T20:02:29.703Z,99935.09
2023-11-01T20:04:56.666Z,99928.31
2023-11-01T20:07:25.806Z,99930.97
2023-11-01T20:09:52.731Z,99931.50
2023-11-01T20:12:21.567Z,99918.44
2023-11-01T20:14:48.785Z,99931.84
2023-11-01T20:17:15.683Z,99930.50
2023-11-01T20:19:43.571Z,99929.03
2023-11-01T20:22:10.599Z,99931.16
2023-11-01T20:24:37.458Z,99925.16
2023-11-01T20:27:05.009Z,99920.84
2023-11-01T20:29:32.070Z,99912.06
2023-11-01T20:31:59.327Z,99912.91
2023-11-01T20:34:26.387Z,99917.50
2023-11-01T20:36:53.688Z,99914.47
2023-11-01T20:39:20.593Z,99913.47
2023-11-01T20:41:47.706Z,99908.19
2023-11-01T20:44:14.962Z,99904.88
2023-11-01T20:46:41.867Z,99908.81
2023-11-01T20:49:11.582Z,99907.00
2023-11-01T20:51:39.446Z,99904.16
2023-11-01T20:54:06.477Z,99900.50
2023-11-01T20:56:37.962Z,99901.81
2023-11-01T20:59:05.159Z,99897.81
2023-11-01T21:01:32.079Z,99894.94
2023-11-01T21:03:59.142Z,99894.50
2023-11-01T21:06:26.756Z,99897.16
2023-11-01T21:08:54.432Z,99891.22
2023-11-01T21:11:21.486Z,99885.09
2023-11-01T21:13:52.125Z,99880.50
2023-11-01T21:16:19.044Z,99871.06
2023-11-01T21:18:46.105Z,99873.09
2023-11-01T21:21:13.365Z,99876.72
2023-11-01T21:23:43.457Z,99871.44
2023-11-01T21:26:10.751Z,99865.50
2023-11-01T21:28:40.898Z,99861.38
2023-11-01T21:31:11.263Z,99867.31
2023-11-01T21:33:41.160Z,99859.91
2023-11-01T21:36:08.659Z,99858.25
2023-11-01T21:38:35.631Z,99854.94
2023-11-01T21:41:02.664Z,99848.81
2023-11-01T21:43:29.864Z,99846.72
2023-11-01T21:45:56.757Z,99849.19
2023-11-01T21:48:25.811Z,99848.72
2023-11-01T21:51:01.146Z,99847.53
2023-11-01T21:53:31.796Z,99834.47
2023-11-01T21:55:59.949Z,99835.13
2023-11-01T21:58:32.606Z,99831.81
2023-11-01T22:01:05.379Z,99835.28
2023-11-01T22:03:43.146Z,99832.09
2023-11-01T22:06:11.469Z,99834.59
2023-11-01T22:09:15.483Z,99828.44
2023-11-01T22:11:45.965Z,99825.94
2023-11-01T22:14:34.480Z,99820.31
2023-11-01T22:17:04.136Z,99818.22
2023-11-01T22:19:43.173Z,99810.44
2023-11-01T22:22:32.580Z,99816.56
2023-11-01T22:24:59.694Z,99810.81
2023-11-01T22:27:39.284Z,99798.09
2023-11-01T22:30:08.553Z,99791.50
2023-11-01T22:32:35.685Z,99787.50
2023-11-01T22:35:02.874Z,99788.50
2023-11-01T22:37:29.899Z,99786.19
2023-11-01T22:39:57.690Z,99785.38
2023-11-01T22:42:32.569Z,99784.38
2023-11-01T22:45:03.843Z,99777.41
2023-11-01T22:47:31.226Z,99770.66
2023-11-01T22:49:59.275Z,99769.03
2023-11-01T22:52:26.155Z,99768.41
2023-11-01T22:54:53.239Z,99757.81
2023-11-01T22:57:20.285Z,99766.25
2023-11-01T22:59:47.310Z,99761.78
2023-11-01T23:02:16.639Z,99753.00
2023-11-01T23:04:44.132Z,99756.84
2023-11-01T23:07:11.965Z,99764.16
2023-11-01T23:09:39.114Z,99758.19
2023-11-01T23:12:06.954Z,99754.63
2023-11-01T23:14:33.967Z,99747.47
2023-11-01T23:17:01.313Z,99745.38
2023-11-01T23:19:28.664Z,99746.66
2023-11-01T23:21:55.537Z,99743.34
2023-11-01T23:24:24.685Z,99742.53
2023-11-01T23:26:58.625Z,99734.28
2023-11-01T23:29:26.446Z,99737.13
2023-11-01T23:31:53.877Z,99732.81
2023-11-01T23:34:46.601Z,99728.19
2023-11-01T23:37:35.260Z,99733.13
2023-11-01T23:40:08.356Z,99731.47
2023-11-01T23:42:35.537Z,99737.13
2023-11-01T23:45:26.774Z,99736.31
2023-11-01T23:47:55.624Z,99726.19
2023-11-01T23:50:43.743Z,99729.00
2023-11-01T23:53:18.482Z,99727.38
2023-11-01T23:55:49.777Z,99731.84
2023-11-01T23:58:29.714Z,99728.06
